Timeline UpdatesTrip UpdatesNews PostsPvt PostsTravel TipsAdmin PostsConv PostsFollowed PostsChat RequestsBlog PostsPNR Posts

Disclaimer
Search
 
 
Tue Sep 16, 2014 20:58:13 ISTHomeTrainsΣChainsAtlasPNRForumGalleryNewsFAQTripsMembersLoginFeedback
No Recent News for this Train
Other Trains in the News **new
Latest...
.
Wed Nov 13, 2013 (07:25AM)
⇐ Return Journey: Train# 16687

16688/Navyug Express

Time-Table HAS CHANGED.
Sep 03 (12:24PM)
Change Departure Station:
Change Arrival Station:
Post a Train Travel TipPost a Train Travel Tip **new
Post a Comment/Question/Picture/VideoPost a Comment/Question/Picture/Video
Pantry/Catering
✓ Pantry Car Avbl
✓ Catering Avbl
Good Food
RSA - Rake Sharing
NO RSA
Rake/Coach Composition
ED- MAQ ENG-SLR-UR-UR-A1-B1-S1-S2-S3-S4-S5-PC-SLR; ED TEN: [S6-S7-S8-S9-A2-UR-SLR ]; JAT - ED- ENG-SLR-UR-UR-A1-B1-S1-S2-S3-S4-S5-PC-S6-S7-S8-S9-A2-UR-SLR
Loco
JAT-NDLS WDM 3A TKD-SHED WAP-4 (NDLS 2 SRR) ERS WDM 3A SRR-MAQ
News    PNR    Forum    Time-Table    Availability    Fare Chart    Map    Arr/Dep History    Trips    Gallery    ΣChains    X/O    Timeline    
Travel Time: 3h 7m    5 halts    Distance: 170 km    Avg Speed: 54 km/hr
Type: Mail/Express
Zone: SR/Southern
Departs @ 23:45 (Avg 1h 32m late)
Platform# 2
    T  
Jammu Tawi/JAT 
Arrives @ 02:52 +1 night (Avg 1h 45m late)
Platform# 2
     F 
Tanda Urmar/TDO 

5 halts. 29 intermediate Stations between Jammu Tawi and Tanda Urmar

Show ALL intermediate Stations  Show Old Time-Table

#CodeStation NameX/OArrivesAvgDepartsAvgHaltPFDay#KmSpeedElevZoneAddress
1JAT»Jammu Tawi (3)»  -23:45+1:32210.065337mNRJammu 180002, Jammu and Kashmir
2SMBXSamba (2)  00:15+1:4100:17+1:422m1232.764365mNRDist. Samba, Jammu and Kashmir
3KTHUKathua (2)  00:58+1:4501:00+1:472m2276.350396mNRdistt. kathua, Jammu and Kashmir
4PTKCPathankot Cantt (3)  01:28+1:5701:33+1:565m1299.457328mNRPathankot By Pass Ph:0186-2251594, Punjab
5MEXMukerian (3)  02:15+1:4802:17+1:482m12139.353257mNRMukerian distt. hosiharpur, Punjab
6DZADasuya (2)X  02:34+1:4602:36+1:462m22154.358251mNRDasuya distt. hoshiarpur, Punjab
7TDO•Tanda Urmar (3)•  02:52+1:4502:54+1:452m22169.762239mNRUrmar Tanda, Punjab
8JRCJalandhar Cantt. Junction (3)X  03:35+1:4203:40+1:435m32211.954239mNRNear Rama Mandi, Punjab
9PGWPhagwara Junction (3)  03:58+1:3904:00+1:392m12228.275245mNRPhagwara, Punjab
10PHRPhillaur Junction (3)X  04:18+1:3904:20+1:392m12250.820246mNRPhillaur, Punjab
11LDHLudhiana Junction (7)X  05:00+1:2205:15+1:1815m52263.963246mNRLudhiana 141001, Punjab
12QRPKila Raipur (1)  05:32+1:3705:34+1:392m12281.651262mNRDelhon Pakhowal Rd, Punjab
13AHHAhmadgarh (1)  05:43+1:4105:45+1:452m12289.343256mNRAhmedgarh, Punjab
14METMalerkotla (2)  06:13+1:4006:15+1:422m12309.156248mNRMalerkotla., Punjab
15DUIDhuri Junction (4)X  06:35 06:33+1:4107:00 06:35+1:3125 2m--2326.024248mNRDhuri, Punjab
16SAGSangrur (2)X  07:15+1:3007:17+1:302m12342.035239mNRSangrur, Punjab
17SFMSunam (1)  07:39+1:2107:41+1:222m12354.867235mNRSunam, Punjab
18LHALehra Gaga (1)  07:59 08:00+1:2508:01+1:252 1m12376.119227mNRSangrur, Punjab
19JHLJakhal Junction  08:55+1:0509:00+1:075m--2393.067225mNRJakhal, Haryana
20TUNTohana (2)  09:11+1:1109:13+1:112m--2405.261232mNRTohana, Haryana
21NRWNarwana Junction (4)X  09:38+1:0009:40+1:002m--2430.765235mNRWay to Narwana, Haryana
22UCAUchana  09:54+1:0009:56+1:002m--2445.958225mNRDistrict Jind, Haryana
23BZOBarsola  10:06+1:0910:08+1:082m--2455.539224mNRDistrict Jind, Haryana
24JINDJind Junction (3)X  10:24 10:22+1:0210:27 10:24+1:053 2m--2464.664222mNR126102., Haryana
25JNAJulana  10:50 10:48+5610:52 10:50+552m--2490.372226mNRJulana, Haryana
26ROKRohtak Junction (3)  11:45 11:16+5811:47 11:18+572m--2521.769220mNRRohtak, Haryana
27BGZBahadurgarh  12:19 11:53+4912:21 11:55+492m--2562.028220mNRBahadurgarh, Haryana
28SSBShakur Basti  12:56 12:38+4612:58 12:40+502m--2581.913216mNRPitampura, Delhi NCT
29NDLSNew Delhi (16)X13:35 13:30+1:0214:30 14:15+5455 45m92592.817215mNRNew Delhi, Delhi NCT
30NZMDelhi Hazrat Nizamuddin (7)X  14:45 14:41+1:0114:55 14:43+5510 2m42600.233209mNRNew Delhi 110013, Delhi NCT
31FDBFaridabad (4)  15:38 15:21+5315:40 15:23+1:092m32620.945206mNRold Faridabad, Haryana
32AGCAgra Cantt. (6)  19:05+2119:10+235m12787.890174mNCRAgra, Uttar Pradesh
33DHODholpur Junction (3)  19:45+3519:47+352m22840.462177mNCRDholpur, Rajasthan
34GWLGwalior Junction (4)  20:50+4520:55+505m12905.862214mNCRGwalior, Madhya Pradesh
35JHSJhansi Junction (7)X  22:30+1:0622:40+1:0710m--21003.567259mNCRJhansi, Uttar Pradesh
36BPLBhopal Junction (6)  02:55 03:00+5303:00 03:05+575m131295.339497mWCRBhopal, Madhya Pradesh
37ETItarsi Junction (7)X  05:25+2805:30+325m--31387.058329mWCRItarsi 461111, Madhya Pradesh
38NGPNagpur Junction (8)  10:35 10:40+4510:45+5310 5m231684.273314mCRNagpur 440001, Maharashtra
39SEGMSewagram Junction (5)  11:47 11:48+5711:49+572 1m--31760.466279mCRWardha, Maharashtra
40CDChandrapur Maharashtra (3)  13:36 13:37+4613:38+472 1m131879.012194mCRChandrapur 442401, Maharashtra
41BPQBalharshah Junction (5)  14:30 14:45+1914:40 14:50+2910 5m331892.880188mCRBallarpur. Ph : 07172 - 240341, Maharashtra
42RDMRamagundam (3)  16:35 16:36+4216:37+412 1m232034.650170mSCRKarimnagar Dist. Ph : 08728 - 255237, Telangana
43WLWarangal (3)X  18:38+5018:43+505m132135.767271mSCRWarangal., Telangana
44KMTKhammam (2)X  20:19+1:0620:20+1:111m132243.331118mSCRKhammam 507001, Telangana
45BZAVijayawada Junction (10)X  23:35+2523:45+2710m732343.76924mSCRVijayawada 520001, Andhra Pradesh
46TELTenali Junction (5)X  00:10 00:12+4900:12 00:13+492 1m242374.96816mSCRTel: 08644-227834, Andhra Pradesh
47OGLOngole (3)X  01:45 01:47+4001:47 01:48+402 1m342481.97912mSCROngole, Andhra Pradesh
48NLRNellore (4)O  03:18 03:17+1303:20 03:18+132 1m342598.73321mSCRNellore, Andhra Pradesh
49GDRGudur Junction (3)  04:28+1804:30+182m142637.27119mSCRGudur, Andhra Pradesh
50RURenigunta Junction (5)X  05:40+3805:50+3910m242720.640113mSCRChittoor District, Andhra Pradesh
51TPTYTirupati Main (5)  06:05+3706:10+405m242730.455150mSCRChittoor Distt, Andhra Pradesh
52CTOChittoor (3)  07:28 07:29+4507:30+452 1m--42802.324305mSCR517001., Andhra Pradesh
53KPDKatpadi Junction (5)X  08:55 08:52+1408:57+152 5m342835.471213mSRVellore 632007, Tamil Nadu
54JTJJolarpettai Junction (5)X  10:08+910:10+102m--42919.380405mSRJolarpettai, Tamil Nadu
55SASalem Junction (6)  11:40+1611:45+165m--43039.541283mSRSalem, Tamil Nadu
56EDErode Junction (4)12:55 13:15+613:20+1625 5m343100.870175mSRErode ph.no: 0424-2256111, Tamil Nadu
57TUPTiruppur (2)X  14:03+1314:05+132m143151.155305mSRTiruppur. Ph:0421-2200450, Tamil Nadu
58CBECoimbatore Main Junction (6)X  15:00+1115:05+115m143201.544416mSRCoimbatore 641001, Tamil Nadu
59PGTPalakkad Junction (4)  16:20-116:25+15m143256.85484mSRPalghat Tel: 0491 2555231, Kerala
60SRRShoranur Junction (7)17:15+817:25+1610m243301.46526mSRShoranur ph.no 0466-2222913, Kerala
61CLTKozhikode Main (4)X  18:45+518:50+45m443387.87711mSRCalicut Tel: 0495 2701234, Kerala
62TLYThalassery (2)  19:42 19:43+819:45+73 2m--43456.1359mSRKannur, Kerala
63CANKannur Main (4)X  20:10 20:20+1120:15 20:25+115m143476.88214mSRKannur Tel: 0497 2705555, Kerala
64KGQKasaragod (3)  21:28+221:30+22m243562.93718mSRTel: 04994 220800, Kerala
65MAQMangalore Central (4)  22:45+2-243608.6-14mSRMangalore 575001, Karnataka
Scroll to Top
Scroll to Bottom